sensor_id;sensor_type;location;lat;lon;timestamp;pressure;altitude;pressure_sealevel;temperature;humidity
22862;BME280;11598;50.652;6.172;2023-12-14T00:07:47;95534.25;;;5.16;100.00
22862;BME280;11598;50.652;6.172;2023-12-14T00:17:48;95550.28;;;5.19;100.00
22862;BME280;11598;50.652;6.172;2023-12-14T00:27:48;95558.31;;;5.15;100.00
22862;BME280;11598;50.652;6.172;2023-12-14T00:37:49;95591.88;;;5.00;100.00
22862;BME280;11598;50.652;6.172;2023-12-14T00:47:49;95617.09;;;4.82;100.00
22862;BME280;11598;50.652;6.172;2023-12-14T00:57:49;95623.47;;;4.77;100.00
22862;BME280;11598;50.652;6.172;2023-12-14T01:07:50;95647.56;;;4.76;100.00
22862;BME280;11598;50.652;6.172;2023-12-14T01:17:50;95668.13;;;4.76;100.00
22862;BME280;11598;50.652;6.172;2023-12-14T01:27:50;95691.75;;;4.82;100.00
22862;BME280;11598;50.652;6.172;2023-12-14T01:37:51;95696.59;;;4.87;100.00
22862;BME280;11598;50.652;6.172;2023-12-14T01:47:51;95716.03;;;4.91;100.00
22862;BME280;11598;50.652;6.172;2023-12-14T01:57:51;95737.38;;;4.93;100.00
22862;BME280;11598;50.652;6.172;2023-12-14T02:07:52;95748.59;;;4.92;100.00
22862;BME280;11598;50.652;6.172;2023-12-14T02:17:52;95755.22;;;4.96;100.00
22862;BME280;11598;50.652;6.172;2023-12-14T02:27:53;95784.44;;;4.95;100.00
22862;BME280;11598;50.652;6.172;2023-12-14T02:37:53;95794.00;;;4.93;100.00
22862;BME280;11598;50.652;6.172;2023-12-14T02:47:53;95823.06;;;4.81;100.00
22862;BME280;11598;50.652;6.172;2023-12-14T02:57:54;95829.53;;;4.74;100.00
22862;BME280;11598;50.652;6.172;2023-12-14T03:07:54;95845.03;;;4.72;100.00
22862;BME280;11598;50.652;6.172;2023-12-14T03:17:55;95858.56;;;4.76;100.00
22862;BME280;11598;50.652;6.172;2023-12-14T03:27:55;95867.91;;;4.77;100.00
22862;BME280;11598;50.652;6.172;2023-12-14T03:37:55;95884.03;;;4.80;100.00
22862;BME280;11598;50.652;6.172;2023-12-14T03:47:56;95896.44;;;4.74;100.00
22862;BME280;11598;50.652;6.172;2023-12-14T03:57:56;95917.34;;;4.53;100.00
22862;BME280;11598;50.652;6.172;2023-12-14T04:07:57;95933.72;;;4.38;100.00
22862;BME280;11598;50.652;6.172;2023-12-14T04:17:57;95948.66;;;4.31;100.00
22862;BME280;11598;50.652;6.172;2023-12-14T04:27:58;95955.63;;;4.29;100.00
22862;BME280;11598;50.652;6.172;2023-12-14T04:37:58;95980.53;;;4.29;100.00
22862;BME280;11598;50.652;6.172;2023-12-14T04:47:58;96000.78;;;4.19;100.00
22862;BME280;11598;50.652;6.172;2023-12-14T04:57:59;96014.78;;;4.13;100.00
22862;BME280;11598;50.652;6.172;2023-12-14T05:07:59;96018.47;;;4.09;100.00
22862;BME280;11598;50.652;6.172;2023-12-14T05:17:59;96036.88;;;4.01;100.00
22862;BME280;11598;50.652;6.172;2023-12-14T05:28:00;96049.91;;;3.98;100.00
22862;BME280;11598;50.652;6.172;2023-12-14T05:38:00;96058.44;;;3.99;100.00
22862;BME280;11598;50.652;6.172;2023-12-14T05:48:01;96078.16;;;3.98;100.00
22862;BME280;11598;50.652;6.172;2023-12-14T05:58:02;96107.75;;;3.90;100.00
22862;BME280;11598;50.652;6.172;2023-12-14T06:08:02;96127.97;;;3.80;100.00
22862;BME280;11598;50.652;6.172;2023-12-14T06:18:02;96143.13;;;3.69;100.00
22862;BME280;11598;50.652;6.172;2023-12-14T06:28:05;96170.03;;;3.62;100.00
22862;BME280;11598;50.652;6.172;2023-12-14T06:38:05;96182.00;;;3.63;100.00
22862;BME280;11598;50.652;6.172;2023-12-14T06:48:05;96194.09;;;3.60;100.00
22862;BME280;11598;50.652;6.172;2023-12-14T06:58:06;96211.47;;;3.55;100.00
22862;BME280;11598;50.652;6.172;2023-12-14T07:08:11;96241.44;;;3.55;100.00
22862;BME280;11598;50.652;6.172;2023-12-14T07:18:11;96267.22;;;3.53;100.00
22862;BME280;11598;50.652;6.172;2023-12-14T07:28:12;96291.31;;;3.51;100.00
22862;BME280;11598;50.652;6.172;2023-12-14T07:38:12;96302.41;;;3.51;100.00
22862;BME280;11598;50.652;6.172;2023-12-14T07:48:12;96315.78;;;3.41;100.00
22862;BME280;11598;50.652;6.172;2023-12-14T07:58:13;96332.25;;;3.36;100.00
22862;BME280;11598;50.652;6.172;2023-12-14T08:08:13;96356.03;;;3.40;100.00
22862;BME280;11598;50.652;6.172;2023-12-14T08:18:14;96377.34;;;3.42;100.00
22862;BME280;11598;50.652;6.172;2023-12-14T08:28:14;96393.03;;;3.36;100.00
22862;BME280;11598;50.652;6.172;2023-12-14T08:38:15;96411.38;;;3.28;100.00
22862;BME280;11598;50.652;6.172;2023-12-14T08:48:15;96436.63;;;3.18;100.00
22862;BME280;11598;50.652;6.172;2023-12-14T08:58:16;96449.72;;;3.12;100.00
22862;BME280;11598;50.652;6.172;2023-12-14T09:08:16;96470.25;;;3.12;100.00
22862;BME280;11598;50.652;6.172;2023-12-14T09:18:16;96472.63;;;3.17;100.00
22862;BME280;11598;50.652;6.172;2023-12-14T09:28:17;96481.25;;;3.16;100.00
22862;BME280;11598;50.652;6.172;2023-12-14T09:38:17;96503.53;;;3.15;100.00
22862;BME280;11598;50.652;6.172;2023-12-14T09:48:19;96514.81;;;3.11;100.00
22862;BME280;11598;50.652;6.172;2023-12-14T09:58:20;96537.28;;;3.06;100.00
22862;BME280;11598;50.652;6.172;2023-12-14T10:08:21;96552.94;;;3.00;100.00
22862;BME280;11598;50.652;6.172;2023-12-14T10:18:22;96578.13;;;2.92;100.00
22862;BME280;11598;50.652;6.172;2023-12-14T10:28:24;96586.19;;;2.83;100.00
22862;BME280;11598;50.652;6.172;2023-12-14T10:38:25;96594.91;;;2.79;100.00
22862;BME280;11598;50.652;6.172;2023-12-14T10:48:29;96606.59;;;2.86;100.00
22862;BME280;11598;50.652;6.172;2023-12-14T10:58:48;96623.41;;;2.93;100.00
22862;BME280;11598;50.652;6.172;2023-12-14T11:08:51;96631.88;;;2.95;100.00
22862;BME280;11598;50.652;6.172;2023-12-14T11:19:33;96648.72;;;3.01;100.00
22862;BME280;11598;50.652;6.172;2023-12-14T11:29:33;96651.50;;;2.96;100.00
22862;BME280;11598;50.652;6.172;2023-12-14T11:39:36;96674.06;;;2.88;100.00
22862;BME280;11598;50.652;6.172;2023-12-14T11:49:37;96680.88;;;2.89;100.00
22862;BME280;11598;50.652;6.172;2023-12-14T11:59:37;96673.94;;;2.91;100.00
22862;BME280;11598;50.652;6.172;2023-12-14T12:09:41;96679.06;;;2.91;100.00
22862;BME280;11598;50.652;6.172;2023-12-14T12:19:41;96671.56;;;2.86;100.00
22862;BME280;11598;50.652;6.172;2023-12-14T12:29:42;96685.72;;;2.74;100.00
22862;BME280;11598;50.652;6.172;2023-12-14T12:39:43;96699.69;;;2.67;100.00
22862;BME280;11598;50.652;6.172;2023-12-14T12:49:43;96718.59;;;2.65;100.00
22862;BME280;11598;50.652;6.172;2023-12-14T12:59:44;96718.53;;;2.66;100.00
22862;BME280;11598;50.652;6.172;2023-12-14T13:09:44;96734.91;;;2.64;100.00
22862;BME280;11598;50.652;6.172;2023-12-14T13:19:44;96733.22;;;2.63;100.00
22862;BME280;11598;50.652;6.172;2023-12-14T13:29:45;96743.59;;;2.60;100.00
22862;BME280;11598;50.652;6.172;2023-12-14T13:39:45;96768.16;;;2.65;100.00
22862;BME280;11598;50.652;6.172;2023-12-14T13:49:47;96792.47;;;2.79;100.00
22862;BME280;11598;50.652;6.172;2023-12-14T13:59:48;96829.78;;;2.87;100.00
22862;BME280;11598;50.652;6.172;2023-12-14T14:09:48;96832.34;;;2.87;100.00
22862;BME280;11598;50.652;6.172;2023-12-14T14:19:49;96851.47;;;2.79;100.00
22862;BME280;11598;50.652;6.172;2023-12-14T14:29:50;96866.31;;;2.70;100.00
22862;BME280;11598;50.652;6.172;2023-12-14T14:39:53;96883.75;;;2.61;100.00
22862;BME280;11598;50.652;6.172;2023-12-14T14:49:54;96898.59;;;2.52;100.00
22862;BME280;11598;50.652;6.172;2023-12-14T14:59:57;96911.91;;;2.39;100.00
22862;BME280;11598;50.652;6.172;2023-12-14T15:09:57;96934.66;;;2.23;100.00
22862;BME280;11598;50.652;6.172;2023-12-14T15:19:58;96939.09;;;2.18;100.00
22862;BME280;11598;50.652;6.172;2023-12-14T15:29:59;96957.94;;;2.17;100.00
22862;BME280;11598;50.652;6.172;2023-12-14T15:39:59;96980.16;;;2.16;100.00
22862;BME280;11598;50.652;6.172;2023-12-14T15:50:00;96992.09;;;2.17;100.00
22862;BME280;11598;50.652;6.172;2023-12-14T16:00:00;96994.53;;;2.22;100.00
22862;BME280;11598;50.652;6.172;2023-12-14T16:10:01;97018.44;;;2.22;100.00
22862;BME280;11598;50.652;6.172;2023-12-14T16:20:02;97025.13;;;2.26;100.00
22862;BME280;11598;50.652;6.172;2023-12-14T16:30:04;97038.69;;;2.30;100.00
22862;BME280;11598;50.652;6.172;2023-12-14T16:40:07;97050.53;;;2.34;100.00
22862;BME280;11598;50.652;6.172;2023-12-14T16:50:07;97065.00;;;2.35;100.00
22862;BME280;11598;50.652;6.172;2023-12-14T17:00:09;97086.28;;;2.39;100.00
22862;BME280;11598;50.652;6.172;2023-12-14T17:10:10;97099.00;;;2.42;100.00
22862;BME280;11598;50.652;6.172;2023-12-14T17:20:10;97096.50;;;2.40;100.00
22862;BME280;11598;50.652;6.172;2023-12-14T17:30:11;97118.13;;;2.31;100.00
22862;BME280;11598;50.652;6.172;2023-12-14T17:40:12;97135.31;;;2.28;100.00
22862;BME280;11598;50.652;6.172;2023-12-14T17:50:12;97143.72;;;2.33;100.00
22862;BME280;11598;50.652;6.172;2023-12-14T18:00:13;97152.97;;;2.37;100.00
22862;BME280;11598;50.652;6.172;2023-12-14T18:10:13;97164.72;;;2.44;100.00
22862;BME280;11598;50.652;6.172;2023-12-14T18:20:14;97167.09;;;2.52;100.00
22862;BME280;11598;50.652;6.172;2023-12-14T18:30:15;97181.53;;;2.54;100.00
22862;BME280;11598;50.652;6.172;2023-12-14T18:40:16;97208.72;;;2.60;100.00
22862;BME280;11598;50.652;6.172;2023-12-14T18:50:18;97233.41;;;2.64;100.00
22862;BME280;11598;50.652;6.172;2023-12-14T19:00:19;97237.59;;;2.67;100.00
22862;BME280;11598;50.652;6.172;2023-12-14T19:10:20;97257.28;;;2.66;100.00
22862;BME280;11598;50.652;6.172;2023-12-14T19:20:20;97263.28;;;2.65;100.00
22862;BME280;11598;50.652;6.172;2023-12-14T19:30:20;97274.34;;;2.67;100.00
22862;BME280;11598;50.652;6.172;2023-12-14T19:40:21;97275.03;;;2.72;100.00
22862;BME280;11598;50.652;6.172;2023-12-14T19:50:22;97283.53;;;2.74;100.00
22862;BME280;11598;50.652;6.172;2023-12-14T20:00:22;97296.13;;;2.82;100.00
22862;BME280;11598;50.652;6.172;2023-12-14T20:10:23;97309.69;;;2.87;100.00
22862;BME280;11598;50.652;6.172;2023-12-14T20:20:23;97304.41;;;2.92;100.00
22862;BME280;11598;50.652;6.172;2023-12-14T20:30:24;97316.34;;;2.93;100.00
22862;BME280;11598;50.652;6.172;2023-12-14T20:40:24;97317.94;;;2.97;100.00
22862;BME280;11598;50.652;6.172;2023-12-14T20:50:27;97327.28;;;3.00;100.00
22862;BME280;11598;50.652;6.172;2023-12-14T21:00:30;97344.34;;;3.01;100.00
22862;BME280;11598;50.652;6.172;2023-12-14T21:10:31;97352.91;;;3.01;100.00
22862;BME280;11598;50.652;6.172;2023-12-14T21:20:31;97365.69;;;3.03;100.00
22862;BME280;11598;50.652;6.172;2023-12-14T21:30:33;97355.47;;;3.01;100.00
22862;BME280;11598;50.652;6.172;2023-12-14T21:40:33;97384.63;;;2.99;100.00
22862;BME280;11598;50.652;6.172;2023-12-14T21:50:33;97401.06;;;2.93;100.00
22862;BME280;11598;50.652;6.172;2023-12-14T22:00:34;97415.66;;;2.91;100.00
22862;BME280;11598;50.652;6.172;2023-12-14T22:10:34;97412.22;;;2.92;100.00
22862;BME280;11598;50.652;6.172;2023-12-14T22:20:34;97425.69;;;2.99;100.00
22862;BME280;11598;50.652;6.172;2023-12-14T22:30:35;97450.41;;;3.03;100.00
22862;BME280;11598;50.652;6.172;2023-12-14T22:40:35;97442.63;;;3.06;100.00
22862;BME280;11598;50.652;6.172;2023-12-14T22:50:36;97462.19;;;3.10;100.00
22862;BME280;11598;50.652;6.172;2023-12-14T23:00:36;97457.88;;;3.10;100.00
22862;BME280;11598;50.652;6.172;2023-12-14T23:10:38;97467.31;;;3.10;100.00
22862;BME280;11598;50.652;6.172;2023-12-14T23:20:39;97476.91;;;3.03;100.00
22862;BME280;11598;50.652;6.172;2023-12-14T23:30:39;97502.66;;;3.00;100.00
22862;BME280;11598;50.652;6.172;2023-12-14T23:40:40;97501.16;;;2.93;100.00
22862;BME280;11598;50.652;6.172;2023-12-14T23:50:40;97513.63;;;2.74;100.00
